Time;durP1;ratioP1;P1;durP2;ratioP2;P2;SDS_P1;SDS_P2;PMS_P1;PMS_P2;Temp;Humidity;BMP_temperature;BMP_pressure;BME280_temperature;BME280_humidity;BME280_pressure;Samples;Min_cycle;Max_cycle;Signal;HPM_P1;HPM_P2
2021/05/31 00:02:07;;;;;;;11.25;5.03;;;11.80;99.90;;;;;;5109607;28;20402;-84
2021/05/31 00:04:33;;;;;;;9.00;4.90;;;11.80;99.90;;;;;;5110927;28;20045;-82
2021/05/31 00:07:02;;;;;;;9.57;5.32;;;11.70;99.90;;;;;;5112592;28;20035;-82
2021/05/31 00:09:29;;;;;;;12.02;6.30;;;12.50;99.90;;;;;;5112603;28;20046;-82
2021/05/31 00:11:55;;;;;;;11.07;5.20;;;11.60;99.90;;;;;;5111860;28;20070;-82
2021/05/31 00:14:21;;;;;;;11.48;6.43;;;11.70;99.90;;;;;;5111803;28;20048;-82
2021/05/31 00:16:46;;;;;;;15.65;7.82;;;11.60;99.90;;;;;;5112250;28;20047;-82
2021/05/31 00:19:14;;;;;;;12.60;7.18;;;11.60;99.90;;;;;;5111738;28;20380;-83
2021/05/31 00:21:41;;;;;;;13.73;7.30;;;11.60;99.90;;;;;;5111771;28;20055;-83
2021/05/31 00:24:07;;;;;;;14.40;7.57;;;11.60;99.90;;;;;;5112175;28;20051;-82
2021/05/31 00:26:33;;;;;;;15.43;7.88;;;11.70;99.90;;;;;;5110796;28;20039;-83
2021/05/31 00:28:59;;;;;;;15.15;8.13;;;11.60;99.90;;;;;;5111722;28;20552;-83
2021/05/31 00:31:25;;;;;;;18.55;8.98;;;11.60;99.90;;;;;;5111393;28;20035;-83
2021/05/31 00:33:51;;;;;;;13.20;8.13;;;11.50;99.90;;;;;;5111719;28;20050;-83
2021/05/31 00:36:17;;;;;;;15.73;8.05;;;11.40;99.90;;;;;;5111735;28;20039;-83
2021/05/31 00:38:43;;;;;;;18.13;8.10;;;11.50;99.90;;;;;;5112312;28;20103;-83
2021/05/31 00:41:09;;;;;;;18.58;8.77;;;11.40;99.90;;;;;;5111844;28;20046;-83
2021/05/31 00:43:36;;;;;;;19.33;9.32;;;11.40;99.90;;;;;;5112240;28;20047;-84
2021/05/31 00:46:02;;;;;;;16.63;8.88;;;11.50;99.90;;;;;;5112262;28;20047;-83
2021/05/31 00:48:29;;;;;;;18.83;8.88;;;11.50;99.90;;;;;;5112000;28;20040;-82
2021/05/31 00:50:56;;;;;;;17.30;9.73;;;11.50;99.90;;;;;;5112518;28;20132;-83
2021/05/31 00:53:22;;;;;;;15.48;9.05;;;11.50;99.90;;;;;;5112085;28;20072;-84
2021/05/31 00:55:49;;;;;;;13.25;8.45;;;11.50;99.90;;;;;;5111968;28;20035;-83
2021/05/31 00:58:14;;;;;;;14.60;8.88;;;11.50;99.90;;;;;;5111823;28;20051;-83
2021/05/31 01:00:42;;;;;;;17.20;9.02;;;11.50;99.90;;;;;;5111459;28;20036;-83
2021/05/31 01:03:08;;;;;;;18.55;9.48;;;11.60;99.90;;;;;;5112662;28;20047;-82
2021/05/31 01:05:33;;;;;;;16.17;8.70;;;11.60;99.90;;;;;;5111869;28;20043;-83
2021/05/31 01:08:07;;;;;;;17.50;9.02;;;11.60;99.90;;;;;;5111960;28;20063;-83
2021/05/31 01:10:39;;;;;;;16.88;9.20;;;11.60;99.90;;;;;;5112409;28;20035;-83
2021/05/31 01:13:16;;;;;;;21.90;10.13;;;11.60;99.90;;;;;;5111534;28;20046;-83
2021/05/31 01:15:47;;;;;;;18.35;9.82;;;11.60;99.90;;;;;;5111648;28;20035;-83
2021/05/31 01:18:18;;;;;;;16.85;9.23;;;11.60;99.90;;;;;;5111814;28;20503;-83
2021/05/31 01:21:01;;;;;;;18.00;9.85;;;11.60;99.90;;;;;;5111071;28;20047;-84
2021/05/31 01:23:31;;;;;;;22.27;9.95;;;11.60;99.90;;;;;;5112588;28;20103;-83
2021/05/31 01:26:05;;;;;;;17.50;9.20;;;11.60;99.90;;;;;;5112164;28;20039;-84
2021/05/31 01:28:59;;;;;;;18.55;10.00;;;11.60;99.90;;;;;;5112856;28;20130;-83
2021/05/31 01:31:32;;;;;;;20.88;9.80;;;11.70;99.90;;;;;;5112283;28;20051;-83
2021/05/31 01:33:59;;;;;;;18.23;9.75;;;11.60;99.90;;;;;;5112310;28;20078;-83
2021/05/31 01:36:26;;;;;;;21.35;10.95;;;11.60;99.90;;;;;;5111699;28;20040;-83
2021/05/31 01:38:53;;;;;;;17.65;10.77;;;11.50;99.90;;;;;;5110898;28;20039;-83
2021/05/31 01:41:20;;;;;;;20.20;11.32;;;11.50;99.90;;;;;;5111237;28;20035;-82
2021/05/31 01:43:47;;;;;;;22.92;11.23;;;11.50;99.90;;;;;;5129444;28;20055;-83
2021/05/31 01:46:13;;;;;;;19.73;10.40;;;11.50;99.90;;;;;;5111752;28;20035;-83
2021/05/31 01:48:41;;;;;;;19.20;11.20;;;11.50;99.90;;;;;;5111158;28;20035;-83
2021/05/31 01:51:07;;;;;;;20.73;11.20;;;11.50;99.90;;;;;;5111664;28;20134;-83
2021/05/31 01:53:34;;;;;;;24.25;11.90;;;11.40;99.90;;;;;;5111935;28;20037;-83
2021/05/31 01:56:01;;;;;;;19.63;11.73;;;11.40;99.90;;;;;;5112905;28;20518;-83
2021/05/31 01:58:27;;;;;;;19.95;12.07;;;11.40;99.90;;;;;;5111739;28;20035;-83
2021/05/31 02:00:55;;;;;;;19.13;10.40;;;11.40;99.90;;;;;;5111383;28;20540;-83
2021/05/31 02:03:20;;;;;;;20.67;11.57;;;11.40;99.90;;;;;;5111624;28;20069;-83
2021/05/31 02:05:46;;;;;;;17.10;8.88;;;11.40;99.90;;;;;;5111404;28;20052;-83
2021/05/31 02:08:12;;;;;;;15.35;8.68;;;11.40;99.90;;;;;;5110969;28;20036;-84
2021/05/31 02:10:37;;;;;;;14.18;7.82;;;11.40;99.90;;;;;;5111091;28;20043;-83
2021/05/31 02:13:04;;;;;;;15.13;8.68;;;11.30;99.90;;;;;;5107556;28;20043;-82
2021/05/31 02:15:37;;;;;;;14.55;8.85;;;11.30;99.90;;;;;;5106031;28;20040;-81
2021/05/31 02:18:11;;;;;;;14.93;8.50;;;11.20;99.90;;;;;;5105886;28;20039;-80
2021/05/31 02:20:37;;;;;;;14.90;8.32;;;11.20;99.90;;;;;;5106506;28;20423;-82
2021/05/31 02:23:06;;;;;;;18.52;8.68;;;11.00;99.90;;;;;;5106067;28;20514;-83
2021/05/31 02:25:32;;;;;;;14.20;8.60;;;11.00;99.90;;;;;;5104977;28;20446;-82
2021/05/31 02:27:59;;;;;;;15.23;8.70;;;11.00;99.90;;;;;;5105505;28;20036;-82
2021/05/31 02:30:25;;;;;;;19.50;10.73;;;11.00;99.90;;;;;;5105102;28;20145;-82
2021/05/31 02:32:53;;;;;;;20.17;11.27;;;10.90;99.90;;;;;;5104597;28;20039;-83
2021/05/31 02:35:21;;;;;;;15.43;8.85;;;10.90;99.90;;;;;;5105326;28;20044;-81
2021/05/31 02:37:48;;;;;;;14.63;8.48;;;10.90;99.90;;;;;;5104215;28;20065;-82
2021/05/31 02:40:14;;;;;;;16.35;9.07;;;10.90;99.90;;;;;;5104049;28;20040;-81
2021/05/31 02:42:43;;;;;;;14.95;8.55;;;10.80;99.90;;;;;;5104608;28;20048;-82
2021/05/31 02:45:10;;;;;;;13.32;8.02;;;10.70;99.90;;;;;;5105490;28;20058;-81
2021/05/31 02:47:36;;;;;;;13.80;7.78;;;10.60;99.90;;;;;;5104333;28;20459;-83
2021/05/31 02:50:03;;;;;;;12.00;7.63;;;10.50;99.90;;;;;;5105369;27;20417;-83
2021/05/31 02:52:30;;;;;;;12.45;7.40;;;10.30;99.90;;;;;;5123882;27;20047;-81
2021/05/31 02:54:55;;;;;;;15.55;8.35;;;10.30;99.90;;;;;;5123409;27;20058;-83
2021/05/31 02:57:21;;;;;;;13.68;7.88;;;10.30;99.90;;;;;;5122490;27;20462;-83
2021/05/31 02:59:47;;;;;;;19.00;9.60;;;10.30;99.90;;;;;;5122474;27;20062;-81
2021/05/31 03:02:12;;;;;;;17.23;9.32;;;10.30;99.90;;;;;;5122408;27;20051;-82
2021/05/31 03:04:38;;;;;;;22.17;11.25;;;10.30;99.90;;;;;;5123022;27;20091;-83
2021/05/31 03:07:04;;;;;;;18.42;10.65;;;10.20;99.90;;;;;;5122526;28;20054;-81
2021/05/31 03:09:31;;;;;;;21.27;11.43;;;10.20;99.90;;;;;;5123092;27;20050;-82
2021/05/31 03:11:57;;;;;;;30.02;13.93;;;10.20;99.90;;;;;;5121822;28;20439;-83
2021/05/31 03:14:22;;;;;;;34.85;15.77;;;10.20;99.90;;;;;;5122742;28;20073;-82
2021/05/31 03:16:48;;;;;;;31.10;16.80;;;10.20;99.90;;;;;;5123345;28;20506;-82
2021/05/31 03:19:13;;;;;;;38.05;18.33;;;10.20;99.90;;;;;;5123341;28;20043;-82
2021/05/31 03:21:39;;;;;;;35.00;17.02;;;10.20;99.90;;;;;;5124464;28;20038;-83
2021/05/31 03:24:05;;;;;;;35.08;18.17;;;10.20;99.90;;;;;;5122803;28;20138;-82
2021/05/31 03:26:32;;;;;;;37.05;18.85;;;10.30;99.90;;;;;;5122581;28;20039;-81
2021/05/31 03:28:58;;;;;;;38.42;19.67;;;10.30;99.90;;;;;;5123164;28;20039;-81
2021/05/31 03:31:23;;;;;;;31.50;17.80;;;10.40;99.90;;;;;;5124078;28;20104;-81
2021/05/31 03:33:49;;;;;;;32.45;19.33;;;10.40;99.90;;;;;;5124231;28;20047;-82
2021/05/31 03:36:14;;;;;;;40.55;20.88;;;10.40;99.90;;;;;;5123527;28;20039;-82
2021/05/31 03:38:40;;;;;;;36.08;19.45;;;10.40;99.90;;;;;;5124484;27;20067;-81
2021/05/31 03:41:06;;;;;;;37.35;20.38;;;10.40;99.90;;;;;;5129650;27;20084;-82
2021/05/31 03:43:33;;;;;;;45.47;21.63;;;10.40;99.90;;;;;;5129263;27;20463;-83
2021/05/31 03:45:58;;;;;;;40.22;21.27;;;10.50;99.90;;;;;;5129936;27;20051;-82
2021/05/31 03:48:24;;;;;;;48.50;22.90;;;10.50;99.90;;;;;;5127884;27;20090;-82
2021/05/31 03:50:50;;;;;;;47.63;23.90;;;10.60;99.90;;;;;;5128484;27;20043;-82
2021/05/31 03:53:15;;;;;;;46.53;23.52;;;10.70;99.90;;;;;;5127835;27;20107;-81
2021/05/31 03:55:41;;;;;;;50.30;24.77;;;10.70;99.90;;;;;;5129038;27;20076;-81
2021/05/31 03:58:08;;;;;;;46.63;24.65;;;10.70;99.90;;;;;;5129416;27;20066;-81
2021/05/31 04:00:35;;;;;;;52.25;24.88;;;10.90;99.90;;;;;;5127158;27;20039;-83
2021/05/31 04:03:02;;;;;;;53.20;24.88;;;10.90;99.90;;;;;;5114881;28;20043;-82
2021/05/31 04:05:31;;;;;;;51.38;26.13;;;11.00;99.90;;;;;;5107032;28;20023;-83
2021/05/31 04:13:07;;;;;;;41.40;21.98;;;11.40;99.90;;;;;;5125432;28;20055;-81
2021/05/31 04:15:32;;;;;;;46.03;23.35;;;11.60;99.90;;;;;;5127845;27;20039;-82
2021/05/31 04:17:59;;;;;;;48.22;23.30;;;11.70;99.90;;;;;;5118134;27;20040;-82
2021/05/31 04:20:25;;;;;;;46.45;21.70;;;11.70;99.90;;;;;;5119613;28;20043;-81
2021/05/31 04:22:51;;;;;;;48.67;23.00;;;11.60;99.90;;;;;;5119439;27;20064;-83
2021/05/31 04:25:17;;;;;;;44.08;21.45;;;11.60;99.90;;;;;;5117411;28;20047;-83
2021/05/31 04:27:42;;;;;;;45.40;21.88;;;11.70;99.90;;;;;;5112476;28;20044;-83
2021/05/31 04:30:09;;;;;;;40.35;20.08;;;11.70;99.90;;;;;;5112474;28;20081;-83
2021/05/31 04:32:35;;;;;;;35.25;18.95;;;11.40;99.90;;;;;;5112322;28;20101;-83
2021/05/31 04:35:02;;;;;;;47.03;20.75;;;11.40;99.90;;;;;;5112055;28;20040;-83
2021/05/31 04:37:30;;;;;;;45.97;21.50;;;11.50;99.90;;;;;;5111328;28;20065;-83
2021/05/31 04:39:56;;;;;;;50.58;20.83;;;11.40;99.90;;;;;;5127880;27;20103;-82
2021/05/31 04:42:22;;;;;;;38.33;20.70;;;11.50;99.90;;;;;;5133282;27;20046;-83
2021/05/31 04:44:47;;;;;;;38.92;19.67;;;11.50;99.90;;;;;;5132955;27;20046;-83
2021/05/31 04:47:13;;;;;;;34.97;19.27;;;11.40;99.90;;;;;;5132331;27;20046;-83
2021/05/31 04:49:38;;;;;;;35.83;19.15;;;11.40;99.90;;;;;;5131487;27;20077;-83
2021/05/31 04:52:06;;;;;;;33.75;18.70;;;11.70;99.90;;;;;;5132419;27;20035;-83
2021/05/31 04:54:31;;;;;;;35.78;18.48;;;11.60;99.90;;;;;;5133133;27;20046;-82
2021/05/31 04:56:57;;;;;;;33.72;19.25;;;11.70;99.90;;;;;;5132502;27;20039;-83
2021/05/31 04:59:23;;;;;;;36.65;18.05;;;11.70;99.90;;;;;;5132440;27;20046;-83
2021/05/31 05:01:48;;;;;;;31.58;18.00;;;11.80;99.90;;;;;;5151536;27;20039;-83
2021/05/31 05:04:14;;;;;;;43.40;18.27;;;12.70;99.90;;;;;;5133180;27;20050;-83
2021/05/31 05:06:41;;;;;;;33.60;17.60;;;12.10;99.90;;;;;;5132823;27;20039;-82
2021/05/31 05:09:08;;;;;;;29.00;16.50;;;12.10;99.90;;;;;;5132921;27;20469;-82
2021/05/31 05:11:33;;;;;;;31.02;16.67;;;12.10;99.90;;;;;;5132990;27;20043;-83
2021/05/31 05:14:00;;;;;;;30.27;15.95;;;12.40;99.90;;;;;;5132480;27;20038;-83
2021/05/31 05:16:26;;;;;;;32.28;17.08;;;12.00;99.90;;;;;;5133495;27;20035;-83
2021/05/31 05:18:52;;;;;;;32.97;16.85;;;12.20;99.90;;;;;;5130138;27;20050;-83
2021/05/31 05:21:18;;;;;;;27.77;16.33;;;12.40;99.90;;;;;;5131881;27;20050;-83
2021/05/31 05:23:44;;;;;;;31.30;16.85;;;12.30;99.90;;;;;;5133295;27;20061;-82
2021/05/31 05:26:11;;;;;;;27.83;15.13;;;12.40;99.90;;;;;;5133286;27;20035;-83
2021/05/31 05:28:38;;;;;;;27.67;15.52;;;12.60;99.90;;;;;;5133190;27;20042;-83
2021/05/31 05:31:06;;;;;;;28.27;15.43;;;12.80;99.90;;;;;;5133499;27;20039;-83
2021/05/31 05:33:33;;;;;;;26.08;15.70;;;13.00;99.90;;;;;;5133234;27;20031;-83
2021/05/31 05:36:13;;;;;;;28.55;15.38;;;13.20;99.90;;;;;;5133393;27;20039;-83
2021/05/31 05:46:50;;;;;;;28.45;14.93;;;13.60;99.90;;;;;;5151759;27;20039;-84
2021/05/31 05:49:16;;;;;;;24.25;14.32;;;13.50;99.90;;;;;;5133562;27;20046;-84
2021/05/31 05:51:41;;;;;;;29.05;15.80;;;13.60;99.90;;;;;;5132888;27;20043;-83
2021/05/31 05:54:07;;;;;;;28.27;15.75;;;13.60;99.90;;;;;;5132730;27;20047;-83
2021/05/31 05:56:34;;;;;;;26.88;15.95;;;13.60;99.90;;;;;;5132717;27;20050;-83
2021/05/31 05:59:01;;;;;;;27.00;14.02;;;13.70;99.90;;;;;;5132935;27;20049;-84
2021/05/31 06:01:27;;;;;;;24.35;13.80;;;13.80;99.90;;;;;;5130852;27;20046;-83
2021/05/31 06:03:53;;;;;;;24.73;14.45;;;13.90;99.90;;;;;;5131390;27;20076;-83
2021/05/31 06:06:19;;;;;;;21.02;13.93;;;13.70;99.90;;;;;;5132146;27;20102;-83
2021/05/31 06:08:45;;;;;;;20.60;12.55;;;13.40;99.90;;;;;;5132621;27;20102;-83
2021/05/31 06:11:11;;;;;;;21.02;13.15;;;13.50;99.90;;;;;;5132183;27;20062;-83
2021/05/31 06:13:40;;;;;;;20.88;12.77;;;13.70;99.90;;;;;;5131726;27;20039;-84
2021/05/31 06:16:06;;;;;;;20.65;13.32;;;13.80;99.90;;;;;;5131728;27;20134;-83
2021/05/31 06:18:32;;;;;;;18.90;12.55;;;14.00;99.90;;;;;;5131392;27;20042;-83
2021/05/31 06:20:58;;;;;;;20.80;12.30;;;13.70;99.90;;;;;;5132876;27;20055;-83
2021/05/31 06:23:24;;;;;;;22.15;12.95;;;14.90;99.90;;;;;;5132599;27;20069;-83
2021/05/31 06:25:50;;;;;;;20.75;13.98;;;13.30;99.90;;;;;;5133057;27;20050;-83
2021/05/31 06:28:16;;;;;;;22.98;13.32;;;13.20;99.90;;;;;;5131998;27;20031;-82
2021/05/31 06:30:43;;;;;;;22.15;13.95;;;13.10;99.90;;;;;;5132940;27;20506;-83
2021/05/31 06:33:09;;;;;;;25.30;15.05;;;13.10;99.90;;;;;;5132721;27;20046;-83
2021/05/31 06:35:36;;;;;;;23.90;14.40;;;13.00;99.90;;;;;;5132349;27;20071;-83
2021/05/31 06:38:02;;;;;;;25.23;14.88;;;12.80;99.90;;;;;;5132232;27;20039;-82
2021/05/31 06:40:28;;;;;;;24.73;14.88;;;12.90;99.90;;;;;;5132124;27;20083;-83
2021/05/31 06:42:56;;;;;;;23.33;13.30;;;12.90;99.90;;;;;;5133142;27;20068;-83
2021/05/31 06:45:24;;;;;;;23.77;13.63;;;12.90;99.90;;;;;;5132515;27;20060;-83
2021/05/31 06:47:52;;;;;;;26.13;13.43;;;12.90;99.90;;;;;;5132702;27;20104;-83
2021/05/31 06:50:18;;;;;;;19.35;12.60;;;12.90;99.90;;;;;;5133155;27;20066;-83
2021/05/31 06:52:44;;;;;;;22.35;13.32;;;12.90;99.90;;;;;;5132394;27;20430;-83
2021/05/31 06:55:11;;;;;;;22.67;13.75;;;13.00;99.90;;;;;;5132612;27;20039;-83
2021/05/31 06:57:36;;;;;;;23.42;13.75;;;12.90;99.90;;;;;;5132520;27;20057;-83
2021/05/31 07:00:04;;;;;;;22.08;13.15;;;12.90;99.90;;;;;;5129551;27;20138;-83
2021/05/31 07:02:29;;;;;;;22.92;13.55;;;12.80;99.90;;;;;;5131830;27;20065;-83
2021/05/31 07:04:56;;;;;;;24.15;15.32;;;12.90;99.90;;;;;;5132383;28;20096;-83
2021/05/31 07:07:22;;;;;;;22.88;14.55;;;12.80;99.90;;;;;;5132609;27;20046;-83
2021/05/31 07:09:48;;;;;;;22.70;13.07;;;12.90;99.90;;;;;;5132597;27;20060;-83
2021/05/31 07:12:17;;;;;;;20.35;13.45;;;13.00;99.90;;;;;;5132465;27;20042;-83
2021/05/31 07:14:45;;;;;;;25.15;13.63;;;13.10;99.90;;;;;;5132165;27;20042;-83
2021/05/31 07:17:12;;;;;;;21.75;12.45;;;13.10;99.90;;;;;;5132086;27;20034;-83
2021/05/31 07:19:39;;;;;;;21.10;12.48;;;12.90;99.90;;;;;;5132593;28;20043;-83
2021/05/31 07:22:06;;;;;;;22.45;13.77;;;13.00;99.90;;;;;;5132671;27;20042;-83
2021/05/31 07:24:32;;;;;;;22.40;12.68;;;13.10;99.90;;;;;;5132850;28;20043;-84
2021/05/31 07:26:57;;;;;;;21.17;12.55;;;13.20;99.90;;;;;;5132159;28;20065;-83
2021/05/31 07:29:23;;;;;;;20.10;12.25;;;13.40;99.90;;;;;;5132080;28;20035;-84
2021/05/31 07:31:49;;;;;;;21.08;12.20;;;13.50;99.90;;;;;;5132281;28;20039;-83
2021/05/31 07:34:15;;;;;;;21.38;11.60;;;13.70;99.90;;;;;;5131795;28;20047;-83
2021/05/31 07:36:41;;;;;;;21.55;12.35;;;13.70;99.90;;;;;;5130927;28;20053;-83
2021/05/31 07:39:10;;;;;;;18.95;11.18;;;13.80;99.90;;;;;;5131357;28;20039;-83
2021/05/31 07:41:35;;;;;;;21.02;10.88;;;13.80;99.90;;;;;;5131888;28;20409;-83
2021/05/31 07:44:01;;;;;;;18.45;9.93;;;13.80;99.90;;;;;;5131362;28;20107;-84
2021/05/31 07:46:27;;;;;;;17.75;10.27;;;13.80;99.90;;;;;;5129870;28;20062;-83
2021/05/31 07:48:53;;;;;;;16.98;9.20;;;14.70;99.90;;;;;;5132442;28;20058;-83
2021/05/31 07:51:20;;;;;;;16.70;8.63;;;14.00;99.90;;;;;;5130169;28;20035;-83
2021/05/31 07:53:48;;;;;;;12.00;8.32;;;14.10;99.90;;;;;;5129924;28;20039;-85
2021/05/31 07:56:15;;;;;;;12.35;8.15;;;14.30;99.90;;;;;;5131158;28;20088;-83
2021/05/31 07:58:42;;;;;;;13.27;8.70;;;14.40;99.90;;;;;;5129624;28;20047;-83
2021/05/31 08:01:08;;;;;;;15.32;8.70;;;14.50;99.90;;;;;;5130162;28;20102;-84
2021/05/31 08:03:33;;;;;;;14.73;8.57;;;14.70;99.90;;;;;;5129400;28;20043;-84
2021/05/31 08:06:00;;;;;;;14.10;8.52;;;14.80;99.90;;;;;;5129786;28;20046;-83
2021/05/31 08:08:26;;;;;;;15.65;7.75;;;14.90;99.90;;;;;;5129476;28;20035;-83
2021/05/31 08:10:51;;;;;;;13.43;8.23;;;15.00;99.90;;;;;;5129403;28;20039;-82
2021/05/31 08:13:18;;;;;;;13.25;8.75;;;15.10;99.90;;;;;;5129920;28;20088;-83
2021/05/31 08:15:44;;;;;;;13.68;8.20;;;15.20;99.90;;;;;;5128871;28;20076;-83
2021/05/31 08:18:11;;;;;;;13.82;8.68;;;15.30;99.90;;;;;;5127159;28;20039;-83
2021/05/31 08:20:37;;;;;;;14.90;8.30;;;16.50;99.90;;;;;;5128063;28;20035;-84
2021/05/31 08:23:02;;;;;;;12.90;7.57;;;15.40;99.90;;;;;;5127494;28;20176;-85
2021/05/31 08:25:28;;;;;;;11.27;7.65;;;15.50;99.90;;;;;;5129050;27;20039;-84
2021/05/31 08:27:54;;;;;;;10.52;6.90;;;15.60;99.90;;;;;;5130590;27;20062;-83
2021/05/31 08:30:22;;;;;;;10.55;6.55;;;15.70;99.90;;;;;;5131153;27;20096;-83
2021/05/31 08:32:48;;;;;;;13.52;6.80;;;15.70;99.90;;;;;;5131026;27;20053;-84
2021/05/31 08:35:14;;;;;;;11.40;6.72;;;15.80;99.90;;;;;;5131289;27;20134;-83
2021/05/31 08:37:40;;;;;;;9.98;7.13;;;15.80;99.90;;;;;;5149306;27;20046;-83
2021/05/31 08:40:07;;;;;;;12.55;7.00;;;15.90;99.90;;;;;;5130489;27;20506;-83
2021/05/31 08:42:35;;;;;;;11.48;6.43;;;15.80;99.90;;;;;;5132685;27;20103;-83
2021/05/31 08:45:02;;;;;;;9.02;5.50;;;15.70;99.90;;;;;;5131339;27;20035;-84
2021/05/31 08:47:29;;;;;;;10.98;5.93;;;15.70;99.90;;;;;;5129733;27;20035;-83
2021/05/31 08:49:55;;;;;;;11.05;6.15;;;15.90;99.90;;;;;;5129895;27;20047;-84
2021/05/31 08:52:21;;;;;;;11.88;5.63;;;15.90;99.90;;;;;;5130017;27;20043;-83
2021/05/31 08:54:46;;;;;;;8.80;5.35;;;16.00;99.90;;;;;;5129885;27;20064;-83
2021/05/31 08:57:12;;;;;;;8.43;4.82;;;16.00;99.90;;;;;;5130278;27;20039;-83
2021/05/31 08:59:38;;;;;;;9.45;4.85;;;16.10;99.90;;;;;;5128246;27;20046;-83
2021/05/31 09:02:04;;;;;;;7.05;4.30;;;16.20;99.90;;;;;;5126140;27;20135;-83
2021/05/31 09:04:31;;;;;;;8.95;5.35;;;16.30;99.90;;;;;;5126306;27;20127;-84
2021/05/31 09:06:58;;;;;;;8.32;5.40;;;16.40;99.90;;;;;;5145007;27;20051;-83
2021/05/31 09:09:37;;;;;;;9.40;4.90;;;16.50;99.90;;;;;;5127706;27;20107;-84
2021/05/31 09:12:06;;;;;;;9.30;5.30;;;16.50;99.90;;;;;;5136344;27;20610;-85
2021/05/31 09:14:32;;;;;;;8.70;5.20;;;16.50;99.90;;;;;;5140453;27;20057;-86
2021/05/31 09:16:58;;;;;;;8.48;4.47;;;18.10;99.90;;;;;;5138271;27;20043;-86
2021/05/31 09:19:23;;;;;;;8.48;4.93;;;16.60;99.90;;;;;;5138163;27;20035;-86
2021/05/31 09:21:50;;;;;;;9.18;3.70;;;17.70;99.90;;;;;;5139495;27;20039;-86
2021/05/31 09:24:22;;;;;;;4.78;2.83;;;16.80;99.90;;;;;;5139706;27;20069;-86
2021/05/31 09:26:50;;;;;;;5.60;2.58;;;18.20;99.90;;;;;;5141359;27;20043;-86
2021/05/31 09:29:16;;;;;;;9.10;2.85;;;16.90;98.30;;;;;;5139674;27;20035;-87
2021/05/31 09:31:42;;;;;;;4.65;2.08;;;17.10;98.70;;;;;;5140641;27;20075;-86
2021/05/31 09:34:10;;;;;;;7.93;2.20;;;17.10;98.70;;;;;;5139261;27;20069;-86
2021/05/31 09:36:47;;;;;;;6.45;2.40;;;17.30;96.40;;;;;;5138786;27;20039;-87
2021/05/31 09:39:15;;;;;;;8.70;3.20;;;17.30;98.00;;;;;;5137308;27;20035;-86
2021/05/31 09:41:40;;;;;;;5.75;2.10;;;17.40;97.70;;;;;;5135672;27;20058;-86
2021/05/31 09:44:08;;;;;;;5.45;2.38;;;17.50;97.60;;;;;;5133846;27;20042;-86
2021/05/31 09:46:35;;;;;;;5.45;2.20;;;17.50;96.80;;;;;;5116901;28;20032;-86
2021/05/31 09:49:09;;;;;;;5.07;2.10;;;17.40;96.00;;;;;;5138535;27;20088;-86
2021/05/31 09:51:35;;;;;;;5.60;2.03;;;17.30;95.20;;;;;;5138074;27;20084;-86
2021/05/31 09:54:01;;;;;;;3.83;2.03;;;17.40;94.50;;;;;;5137830;27;20027;-86
2021/05/31 09:56:33;;;;;;;5.55;2.10;;;17.40;94.80;;;;;;5139071;27;20039;-86
2021/05/31 09:59:04;;;;;;;3.22;1.70;;;17.40;94.10;;;;;;5137297;27;20050;-86
2021/05/31 10:01:34;;;;;;;5.50;1.60;;;17.50;93.80;;;;;;5135666;27;20122;-86
2021/05/31 10:04:17;;;;;;;5.15;1.70;;;17.60;93.30;;;;;;5137670;27;20031;-86
2021/05/31 10:06:51;;;;;;;7.53;2.13;;;17.80;93.60;;;;;;5135582;27;20047;-86
2021/05/31 10:09:17;;;;;;;5.78;2.10;;;17.80;94.30;;;;;;5132655;27;20057;-86
2021/05/31 10:11:45;;;;;;;6.72;2.20;;;17.90;94.00;;;;;;5133270;27;20039;-86
2021/05/31 10:14:14;;;;;;;3.65;1.80;;;17.90;93.60;;;;;;5137401;27;20050;-86
2021/05/31 10:16:41;;;;;;;5.38;1.73;;;17.90;93.00;;;;;;5134335;27;20487;-86
2021/05/31 10:19:07;;;;;;;5.40;1.95;;;18.00;92.90;;;;;;5133297;27;20057;-86
2021/05/31 10:21:33;;;;;;;12.23;2.30;;;18.10;92.40;;;;;;5131907;27;20042;-86
2021/05/31 10:23:59;;;;;;;4.32;1.90;;;18.20;92.20;;;;;;5135228;27;20047;-87
2021/05/31 10:26:28;;;;;;;4.82;2.13;;;18.20;91.90;;;;;;5135512;27;20039;-86
2021/05/31 10:28:55;;;;;;;6.07;2.20;;;18.10;92.10;;;;;;5131450;27;20039;-86
2021/05/31 10:31:21;;;;;;;4.10;1.90;;;18.10;93.60;;;;;;5131572;27;20043;-86
2021/05/31 10:33:56;;;;;;;5.15;1.67;;;18.20;92.20;;;;;;5132632;27;20078;-86
2021/05/31 10:36:22;;;;;;;5.03;1.80;;;18.30;92.00;;;;;;5130975;27;20092;-86
2021/05/31 10:38:53;;;;;;;4.45;1.98;;;18.40;91.90;;;;;;5131096;27;20035;-86
2021/05/31 10:41:21;;;;;;;3.25;1.50;;;18.50;91.20;;;;;;5129805;27;20039;-86
2021/05/31 10:43:49;;;;;;;3.88;1.17;;;18.50;89.40;;;;;;5129240;27;20039;-86
2021/05/31 10:46:19;;;;;;;2.85;1.35;;;18.70;82.60;;;;;;5129299;27;20054;-86
2021/05/31 10:48:46;;;;;;;;;;;18.80;83.70;;;;;;5126516;27;20047;-86
2021/05/31 10:51:15;;;;;;;3.45;1.40;;;18.90;89.80;;;;;;5126711;27;19915;-86
2021/05/31 10:53:41;;;;;;;3.90;1.20;;;19.10;87.80;;;;;;5126009;27;20504;-86
2021/05/31 10:56:09;;;;;;;3.03;1.30;;;19.20;81.10;;;;;;5125473;27;20054;-86
2021/05/31 10:58:38;;;;;;;3.43;1.23;;;20.30;84.50;;;;;;5126555;27;20063;-87
2021/05/31 11:01:07;;;;;;;3.55;1.35;;;19.30;80.10;;;;;;5126847;27;20050;-86
2021/05/31 11:03:46;;;;;;;4.97;1.40;;;19.20;74.90;;;;;;5127033;27;20107;-86
2021/05/31 11:06:12;;;;;;;1.63;1.00;;;19.20;77.70;;;;;;5128114;27;20074;-86
2021/05/31 11:08:48;;;;;;;2.85;1.20;;;19.20;81.80;;;;;;5127172;27;20111;-86
2021/05/31 11:11:26;;;;;;;2.80;1.10;;;19.30;78.40;;;;;;5124931;27;20045;-86
2021/05/31 11:13:53;;;;;;;2.45;1.13;;;19.40;77.60;;;;;;5129348;27;20035;-88
2021/05/31 11:16:19;;;;;;;1.25;0.80;;;19.60;69.30;;;;;;5124945;28;20035;-86
2021/05/31 11:18:47;;;;;;;3.63;1.10;;;19.50;65.30;;;;;;5124798;28;20050;-86
2021/05/31 11:21:28;;;;;;;2.63;1.00;;;19.60;65.10;;;;;;5124145;28;20564;-86
2021/05/31 11:24:03;;;;;;;2.15;1.10;;;19.70;68.90;;;;;;5123241;28;20046;-87
2021/05/31 11:26:31;;;;;;;2.30;1.00;;;19.80;66.20;;;;;;5122352;28;20039;-86
2021/05/31 11:28:58;;;;;;;2.22;0.95;;;19.90;68.90;;;;;;5123184;28;20047;-86
2021/05/31 11:31:25;;;;;;;2.38;0.95;;;20.00;66.20;;;;;;5122049;28;20406;-86
2021/05/31 11:33:54;;;;;;;1.35;0.82;;;20.00;59.90;;;;;;5124068;28;20071;-87
2021/05/31 11:36:31;;;;;;;2.42;0.90;;;20.00;57.80;;;;;;5124513;28;20035;-87
2021/05/31 11:38:57;;;;;;;4.03;1.05;;;19.80;61.10;;;;;;5124548;28;20053;-86
2021/05/31 11:41:38;;;;;;;1.73;0.90;;;19.90;60.80;;;;;;5123730;28;20042;-86
2021/05/31 11:44:05;;;;;;;3.70;1.10;;;20.00;57.90;;;;;;5122011;28;20402;-86
2021/05/31 11:46:30;;;;;;;4.53;0.80;;;20.00;61.20;;;;;;5119372;28;20106;-86
2021/05/31 11:49:05;;;;;;;2.78;0.98;;;20.90;56.20;;;;;;5121525;28;20063;-86
2021/05/31 11:51:31;;;;;;;2.60;0.98;;;20.20;57.30;;;;;;5121057;28;20154;-86
2021/05/31 11:53:57;;;;;;;3.08;1.00;;;20.30;58.80;;;;;;5117659;28;20067;-85
2021/05/31 11:56:30;;;;;;;5.40;1.00;;;20.40;58.80;;;;;;5117119;28;20069;-85
2021/05/31 11:58:56;;;;;;;2.30;1.00;;;20.40;56.70;;;;;;5116871;28;20035;-86
2021/05/31 12:01:22;;;;;;;4.18;0.98;;;21.20;64.80;;;;;;5119430;27;20126;-86
2021/05/31 12:03:47;;;;;;;2.65;1.40;;;20.60;56.50;;;;;;5121152;27;20039;-85
2021/05/31 12:06:14;;;;;;;2.50;1.00;;;20.60;53.80;;;;;;5121646;27;20065;-85
2021/05/31 12:08:40;;;;;;;2.95;0.90;;;20.50;56.70;;;;;;5121909;27;20458;-87
2021/05/31 12:11:06;;;;;;;4.25;1.20;;;20.50;60.50;;;;;;5121735;27;20088;-83
2021/05/31 12:13:33;;;;;;;2.35;0.95;;;21.00;58.50;;;;;;5120522;27;20053;-86
2021/05/31 12:16:10;;;;;;;1.65;0.80;;;20.70;56.20;;;;;;5120299;27;20190;-86
2021/05/31 12:18:36;;;;;;;2.13;0.90;;;21.10;53.90;;;;;;5120210;27;20103;-85
2021/05/31 12:21:01;;;;;;;3.72;0.85;;;20.80;52.60;;;;;;5120423;27;20044;-85
2021/05/31 12:23:29;;;;;;;3.28;0.82;;;20.80;55.20;;;;;;5119964;27;20039;-86
2021/05/31 12:26:02;;;;;;;1.85;0.80;;;20.80;53.50;;;;;;5115996;28;20050;-85
2021/05/31 12:28:34;;;;;;;3.78;0.90;;;20.80;52.60;;;;;;5099360;28;20472;-85
2021/05/31 12:31:00;;;;;;;2.83;1.02;;;20.80;52.10;;;;;;5103715;27;20597;-86
2021/05/31 12:33:26;;;;;;;2.30;0.85;;;20.90;54.80;;;;;;5116976;27;20047;-85
2021/05/31 12:35:52;;;;;;;2.83;0.85;;;20.90;54.30;;;;;;5121786;27;20062;-85
2021/05/31 12:38:19;;;;;;;2.88;0.85;;;20.70;49.70;;;;;;5121326;27;20073;-85
2021/05/31 12:40:47;;;;;;;1.85;0.88;;;20.80;52.70;;;;;;5118863;27;20046;-86
2021/05/31 12:43:13;;;;;;;6.55;0.75;;;21.90;54.50;;;;;;5119197;27;20043;-85
2021/05/31 12:45:44;;;;;;;2.10;0.77;;;21.10;51.40;;;;;;5119091;27;20046;-86
2021/05/31 12:48:15;;;;;;;2.67;0.82;;;21.10;53.20;;;;;;5118444;27;20133;-86
2021/05/31 12:50:41;;;;;;;1.92;0.80;;;21.20;52.90;;;;;;5118298;27;20042;-85